sensor_id;sensor_type;location;lat;lon;timestamp;P1;durP1;ratioP1;P2;durP2;ratioP2
9541;SDS011;4809;48.224;8.572;2023-05-10T00:00:00;0.73;;;0.50;;
9541;SDS011;4809;48.224;8.572;2023-05-10T00:02:29;0.50;;;0.50;;
9541;SDS011;4809;48.224;8.572;2023-05-10T00:04:55;0.60;;;0.60;;
9541;SDS011;4809;48.224;8.572;2023-05-10T00:07:21;0.50;;;0.50;;
9541;SDS011;4809;48.224;8.572;2023-05-10T00:09:46;0.57;;;0.57;;
9541;SDS011;4809;48.224;8.572;2023-05-10T00:12:12;0.73;;;0.50;;
9541;SDS011;4809;48.224;8.572;2023-05-10T00:14:38;0.65;;;0.65;;
9541;SDS011;4809;48.224;8.572;2023-05-10T00:17:03;0.60;;;0.60;;
9541;SDS011;4809;48.224;8.572;2023-05-10T00:19:29;1.27;;;0.50;;
9541;SDS011;4809;48.224;8.572;2023-05-10T00:21:55;0.60;;;0.60;;
9541;SDS011;4809;48.224;8.572;2023-05-10T00:24:20;0.60;;;0.60;;
9541;SDS011;4809;48.224;8.572;2023-05-10T00:26:46;0.60;;;0.60;;
9541;SDS011;4809;48.224;8.572;2023-05-10T00:29:12;0.50;;;0.50;;
9541;SDS011;4809;48.224;8.572;2023-05-10T00:31:37;0.50;;;0.50;;
9541;SDS011;4809;48.224;8.572;2023-05-10T00:34:03;0.75;;;0.60;;
9541;SDS011;4809;48.224;8.572;2023-05-10T00:36:28;1.00;;;0.70;;
9541;SDS011;4809;48.224;8.572;2023-05-10T00:38:54;0.93;;;0.60;;
9541;SDS011;4809;48.224;8.572;2023-05-10T00:41:19;0.80;;;0.60;;
9541;SDS011;4809;48.224;8.572;2023-05-10T00:43:46;0.60;;;0.60;;
9541;SDS011;4809;48.224;8.572;2023-05-10T00:46:11;0.50;;;0.50;;
9541;SDS011;4809;48.224;8.572;2023-05-10T00:48:39;0.82;;;0.60;;
9541;SDS011;4809;48.224;8.572;2023-05-10T00:51:05;0.60;;;0.60;;
9541;SDS011;4809;48.224;8.572;2023-05-10T00:53:31;0.60;;;0.60;;
9541;SDS011;4809;48.224;8.572;2023-05-10T00:55:57;0.55;;;0.55;;
9541;SDS011;4809;48.224;8.572;2023-05-10T00:58:24;0.65;;;0.65;;
9541;SDS011;4809;48.224;8.572;2023-05-10T01:00:53;1.85;;;0.80;;
9541;SDS011;4809;48.224;8.572;2023-05-10T01:03:22;0.70;;;0.70;;
9541;SDS011;4809;48.224;8.572;2023-05-10T01:05:47;1.58;;;0.68;;
9541;SDS011;4809;48.224;8.572;2023-05-10T01:08:13;1.17;;;0.80;;
9541;SDS011;4809;48.224;8.572;2023-05-10T01:10:39;0.63;;;0.63;;
9541;SDS011;4809;48.224;8.572;2023-05-10T01:13:05;0.68;;;0.68;;
9541;SDS011;4809;48.224;8.572;2023-05-10T01:15:31;0.65;;;0.65;;
9541;SDS011;4809;48.224;8.572;2023-05-10T01:17:57;1.33;;;0.60;;
9541;SDS011;4809;48.224;8.572;2023-05-10T01:20:23;0.90;;;0.68;;
9541;SDS011;4809;48.224;8.572;2023-05-10T01:28:23;1.25;;;0.68;;
9541;SDS011;4809;48.224;8.572;2023-05-10T01:34:10;0.60;;;0.60;;
9541;SDS011;4809;48.224;8.572;2023-05-10T01:41:52;1.10;;;0.55;;
9541;SDS011;4809;48.224;8.572;2023-05-10T01:47:12;0.60;;;0.60;;
9541;SDS011;4809;48.224;8.572;2023-05-10T01:49:52;2.13;;;0.70;;
9541;SDS011;4809;48.224;8.572;2023-05-10T01:52:22;0.73;;;0.73;;
9541;SDS011;4809;48.224;8.572;2023-05-10T01:54:55;0.88;;;0.80;;
9541;SDS011;4809;48.224;8.572;2023-05-10T01:57:26;0.73;;;0.73;;
9541;SDS011;4809;48.224;8.572;2023-05-10T01:59:55;0.80;;;0.80;;
9541;SDS011;4809;48.224;8.572;2023-05-10T02:02:22;0.80;;;0.80;;
9541;SDS011;4809;48.224;8.572;2023-05-10T02:04:51;0.75;;;0.75;;
9541;SDS011;4809;48.224;8.572;2023-05-10T02:07:20;1.35;;;0.75;;
9541;SDS011;4809;48.224;8.572;2023-05-10T02:09:47;0.90;;;0.90;;
9541;SDS011;4809;48.224;8.572;2023-05-10T02:12:13;0.80;;;0.80;;
9541;SDS011;4809;48.224;8.572;2023-05-10T02:14:40;0.82;;;0.82;;
9541;SDS011;4809;48.224;8.572;2023-05-10T02:17:07;0.73;;;0.73;;
9541;SDS011;4809;48.224;8.572;2023-05-10T02:19:35;0.75;;;0.75;;
9541;SDS011;4809;48.224;8.572;2023-05-10T02:22:03;1.38;;;1.02;;
9541;SDS011;4809;48.224;8.572;2023-05-10T02:24:30;1.50;;;0.82;;
9541;SDS011;4809;48.224;8.572;2023-05-10T02:26:58;0.82;;;0.80;;
9541;SDS011;4809;48.224;8.572;2023-05-10T02:29:25;1.05;;;0.80;;
9541;SDS011;4809;48.224;8.572;2023-05-10T02:31:54;1.17;;;0.90;;
9541;SDS011;4809;48.224;8.572;2023-05-10T02:34:23;1.35;;;0.80;;
9541;SDS011;4809;48.224;8.572;2023-05-10T02:36:52;0.80;;;0.80;;
9541;SDS011;4809;48.224;8.572;2023-05-10T02:39:18;1.10;;;1.10;;
9541;SDS011;4809;48.224;8.572;2023-05-10T02:41:46;1.05;;;0.98;;
9541;SDS011;4809;48.224;8.572;2023-05-10T02:44:14;2.20;;;1.10;;
9541;SDS011;4809;48.224;8.572;2023-05-10T02:46:42;1.23;;;1.13;;
9541;SDS011;4809;48.224;8.572;2023-05-10T02:49:08;1.63;;;1.20;;
9541;SDS011;4809;48.224;8.572;2023-05-10T02:51:35;1.08;;;0.90;;
9541;SDS011;4809;48.224;8.572;2023-05-10T02:54:10;1.05;;;0.93;;
9541;SDS011;4809;48.224;8.572;2023-05-10T02:56:53;0.98;;;0.95;;
9541;SDS011;4809;48.224;8.572;2023-05-10T02:59:27;1.08;;;0.90;;
9541;SDS011;4809;48.224;8.572;2023-05-10T03:01:53;1.02;;;1.00;;
9541;SDS011;4809;48.224;8.572;2023-05-10T03:04:19;0.77;;;0.75;;
9541;SDS011;4809;48.224;8.572;2023-05-10T03:06:45;0.98;;;0.98;;
9541;SDS011;4809;48.224;8.572;2023-05-10T03:09:11;1.00;;;1.00;;
9541;SDS011;4809;48.224;8.572;2023-05-10T03:11:47;1.27;;;0.80;;
9541;SDS011;4809;48.224;8.572;2023-05-10T03:17:00;1.02;;;0.93;;
9541;SDS011;4809;48.224;8.572;2023-05-10T03:22:08;1.38;;;1.13;;
9541;SDS011;4809;48.224;8.572;2023-05-10T03:24:36;1.75;;;0.90;;
9541;SDS011;4809;48.224;8.572;2023-05-10T03:27:04;0.90;;;0.90;;
9541;SDS011;4809;48.224;8.572;2023-05-10T03:29:31;0.80;;;0.80;;
9541;SDS011;4809;48.224;8.572;2023-05-10T03:32:00;0.90;;;0.90;;
9541;SDS011;4809;48.224;8.572;2023-05-10T03:34:26;1.77;;;0.88;;
9541;SDS011;4809;48.224;8.572;2023-05-10T03:36:55;0.73;;;0.73;;
9541;SDS011;4809;48.224;8.572;2023-05-10T03:39:20;1.42;;;0.90;;
9541;SDS011;4809;48.224;8.572;2023-05-10T03:41:46;1.13;;;0.77;;
9541;SDS011;4809;48.224;8.572;2023-05-10T03:44:12;0.90;;;0.80;;
9541;SDS011;4809;48.224;8.572;2023-05-10T03:46:37;0.80;;;0.80;;
9541;SDS011;4809;48.224;8.572;2023-05-10T03:49:03;0.85;;;0.80;;
9541;SDS011;4809;48.224;8.572;2023-05-10T03:51:29;0.55;;;0.55;;
9541;SDS011;4809;48.224;8.572;2023-05-10T03:53:56;1.35;;;0.95;;
9541;SDS011;4809;48.224;8.572;2023-05-10T03:56:21;0.88;;;0.88;;
9541;SDS011;4809;48.224;8.572;2023-05-10T03:58:47;0.90;;;0.82;;
9541;SDS011;4809;48.224;8.572;2023-05-10T04:01:13;0.93;;;0.70;;
9541;SDS011;4809;48.224;8.572;2023-05-10T04:03:38;0.70;;;0.70;;
9541;SDS011;4809;48.224;8.572;2023-05-10T04:06:04;2.67;;;1.10;;
9541;SDS011;4809;48.224;8.572;2023-05-10T04:08:30;1.15;;;1.00;;
9541;SDS011;4809;48.224;8.572;2023-05-10T04:11:09;2.00;;;1.00;;
9541;SDS011;4809;48.224;8.572;2023-05-10T04:13:36;1.75;;;1.20;;
9541;SDS011;4809;48.224;8.572;2023-05-10T04:16:03;1.27;;;1.00;;
9541;SDS011;4809;48.224;8.572;2023-05-10T04:18:29;1.00;;;1.00;;
9541;SDS011;4809;48.224;8.572;2023-05-10T04:20:55;1.20;;;1.10;;
9541;SDS011;4809;48.224;8.572;2023-05-10T04:23:20;1.02;;;1.00;;
9541;SDS011;4809;48.224;8.572;2023-05-10T04:25:46;1.60;;;1.17;;
9541;SDS011;4809;48.224;8.572;2023-05-10T04:28:12;1.25;;;1.15;;
9541;SDS011;4809;48.224;8.572;2023-05-10T04:30:38;1.38;;;1.17;;
9541;SDS011;4809;48.224;8.572;2023-05-10T04:33:03;1.40;;;1.20;;
9541;SDS011;4809;48.224;8.572;2023-05-10T04:35:29;1.70;;;1.20;;
9541;SDS011;4809;48.224;8.572;2023-05-10T04:37:55;1.55;;;1.25;;
9541;SDS011;4809;48.224;8.572;2023-05-10T04:40:20;1.33;;;1.30;;
9541;SDS011;4809;48.224;8.572;2023-05-10T04:42:46;2.22;;;1.75;;
9541;SDS011;4809;48.224;8.572;2023-05-10T04:45:12;1.42;;;1.00;;
9541;SDS011;4809;48.224;8.572;2023-05-10T04:47:39;1.35;;;1.25;;
9541;SDS011;4809;48.224;8.572;2023-05-10T04:50:05;1.33;;;1.00;;
9541;SDS011;4809;48.224;8.572;2023-05-10T04:52:32;0.90;;;0.90;;
9541;SDS011;4809;48.224;8.572;2023-05-10T04:54:58;0.90;;;0.90;;
9541;SDS011;4809;48.224;8.572;2023-05-10T04:57:23;0.85;;;0.85;;
9541;SDS011;4809;48.224;8.572;2023-05-10T04:59:49;1.20;;;0.90;;
9541;SDS011;4809;48.224;8.572;2023-05-10T05:02:15;1.45;;;1.00;;
9541;SDS011;4809;48.224;8.572;2023-05-10T05:04:40;0.82;;;0.70;;
9541;SDS011;4809;48.224;8.572;2023-05-10T05:07:06;0.80;;;0.80;;
9541;SDS011;4809;48.224;8.572;2023-05-10T05:09:31;0.77;;;0.77;;
9541;SDS011;4809;48.224;8.572;2023-05-10T05:11:57;0.80;;;0.80;;
9541;SDS011;4809;48.224;8.572;2023-05-10T05:14:23;0.77;;;0.77;;
9541;SDS011;4809;48.224;8.572;2023-05-10T05:16:50;1.17;;;0.70;;
9541;SDS011;4809;48.224;8.572;2023-05-10T05:19:17;0.90;;;0.90;;
9541;SDS011;4809;48.224;8.572;2023-05-10T05:21:42;0.77;;;0.77;;
9541;SDS011;4809;48.224;8.572;2023-05-10T05:24:08;0.80;;;0.80;;
9541;SDS011;4809;48.224;8.572;2023-05-10T05:26:35;1.00;;;0.82;;
9541;SDS011;4809;48.224;8.572;2023-05-10T05:29:01;0.80;;;0.80;;
9541;SDS011;4809;48.224;8.572;2023-05-10T05:31:27;0.75;;;0.75;;
9541;SDS011;4809;48.224;8.572;2023-05-10T05:33:53;0.90;;;0.73;;
9541;SDS011;4809;48.224;8.572;2023-05-10T05:36:20;1.00;;;0.90;;
9541;SDS011;4809;48.224;8.572;2023-05-10T05:38:46;0.80;;;0.80;;
9541;SDS011;4809;48.224;8.572;2023-05-10T05:41:12;1.73;;;0.70;;
9541;SDS011;4809;48.224;8.572;2023-05-10T05:43:37;0.85;;;0.85;;
9541;SDS011;4809;48.224;8.572;2023-05-10T05:46:03;0.82;;;0.70;;
9541;SDS011;4809;48.224;8.572;2023-05-10T05:48:32;0.82;;;0.80;;
9541;SDS011;4809;48.224;8.572;2023-05-10T05:50:57;0.80;;;0.80;;
9541;SDS011;4809;48.224;8.572;2023-05-10T05:53:23;0.80;;;0.80;;
9541;SDS011;4809;48.224;8.572;2023-05-10T05:55:55;1.52;;;1.00;;
9541;SDS011;4809;48.224;8.572;2023-05-10T05:58:23;0.98;;;0.98;;
9541;SDS011;4809;48.224;8.572;2023-05-10T06:00:49;2.25;;;1.00;;
9541;SDS011;4809;48.224;8.572;2023-05-10T06:03:15;1.33;;;1.00;;
9541;SDS011;4809;48.224;8.572;2023-05-10T06:05:41;1.20;;;1.20;;
9541;SDS011;4809;48.224;8.572;2023-05-10T06:08:06;1.48;;;1.38;;
9541;SDS011;4809;48.224;8.572;2023-05-10T06:10:32;1.63;;;1.33;;
9541;SDS011;4809;48.224;8.572;2023-05-10T06:12:58;1.02;;;1.02;;
9541;SDS011;4809;48.224;8.572;2023-05-10T06:15:23;1.40;;;1.30;;
9541;SDS011;4809;48.224;8.572;2023-05-10T06:17:49;1.45;;;1.35;;
9541;SDS011;4809;48.224;8.572;2023-05-10T06:20:15;1.50;;;1.40;;
9541;SDS011;4809;48.224;8.572;2023-05-10T06:22:41;1.35;;;1.30;;
9541;SDS011;4809;48.224;8.572;2023-05-10T06:25:07;1.65;;;1.50;;
9541;SDS011;4809;48.224;8.572;2023-05-10T06:27:33;2.05;;;1.20;;
9541;SDS011;4809;48.224;8.572;2023-05-10T06:29:59;1.52;;;1.30;;
9541;SDS011;4809;48.224;8.572;2023-05-10T06:32:25;2.45;;;1.30;;
9541;SDS011;4809;48.224;8.572;2023-05-10T06:34:50;1.50;;;1.40;;
9541;SDS011;4809;48.224;8.572;2023-05-10T06:37:17;1.55;;;1.30;;
9541;SDS011;4809;48.224;8.572;2023-05-10T06:39:42;1.42;;;1.40;;
9541;SDS011;4809;48.224;8.572;2023-05-10T06:42:08;1.40;;;1.33;;
9541;SDS011;4809;48.224;8.572;2023-05-10T06:44:34;1.60;;;1.13;;
9541;SDS011;4809;48.224;8.572;2023-05-10T06:46:59;1.60;;;1.27;;
9541;SDS011;4809;48.224;8.572;2023-05-10T06:49:25;1.95;;;1.20;;
9541;SDS011;4809;48.224;8.572;2023-05-10T06:51:51;1.83;;;1.33;;
9541;SDS011;4809;48.224;8.572;2023-05-10T06:54:16;1.38;;;1.20;;
9541;SDS011;4809;48.224;8.572;2023-05-10T06:56:42;2.30;;;1.40;;
9541;SDS011;4809;48.224;8.572;2023-05-10T06:59:08;1.10;;;1.10;;
9541;SDS011;4809;48.224;8.572;2023-05-10T07:01:34;1.33;;;1.23;;
9541;SDS011;4809;48.224;8.572;2023-05-10T07:04:00;13.18;;;6.45;;
9541;SDS011;4809;48.224;8.572;2023-05-10T07:06:25;2.10;;;1.48;;
9541;SDS011;4809;48.224;8.572;2023-05-10T07:08:52;1.45;;;1.35;;
9541;SDS011;4809;48.224;8.572;2023-05-10T07:11:18;1.40;;;1.30;;
9541;SDS011;4809;48.224;8.572;2023-05-10T07:13:43;1.13;;;1.10;;
9541;SDS011;4809;48.224;8.572;2023-05-10T07:16:11;1.02;;;1.02;;
9541;SDS011;4809;48.224;8.572;2023-05-10T07:18:37;1.88;;;1.05;;
9541;SDS011;4809;48.224;8.572;2023-05-10T07:21:02;1.23;;;1.08;;
9541;SDS011;4809;48.224;8.572;2023-05-10T07:23:28;1.50;;;1.10;;
9541;SDS011;4809;48.224;8.572;2023-05-10T07:25:54;1.75;;;1.30;;
9541;SDS011;4809;48.224;8.572;2023-05-10T07:28:22;1.35;;;1.25;;
9541;SDS011;4809;48.224;8.572;2023-05-10T07:30:49;1.83;;;1.20;;
9541;SDS011;4809;48.224;8.572;2023-05-10T07:33:15;1.20;;;1.20;;
9541;SDS011;4809;48.224;8.572;2023-05-10T07:35:41;2.65;;;1.70;;
9541;SDS011;4809;48.224;8.572;2023-05-10T07:38:07;1.20;;;1.10;;
9541;SDS011;4809;48.224;8.572;2023-05-10T07:40:32;1.00;;;1.00;;
9541;SDS011;4809;48.224;8.572;2023-05-10T07:42:58;1.08;;;1.00;;
9541;SDS011;4809;48.224;8.572;2023-05-10T07:45:26;0.95;;;0.95;;
9541;SDS011;4809;48.224;8.572;2023-05-10T07:47:52;1.00;;;1.00;;
9541;SDS011;4809;48.224;8.572;2023-05-10T07:50:18;1.00;;;1.00;;
9541;SDS011;4809;48.224;8.572;2023-05-10T07:52:43;1.23;;;1.10;;
9541;SDS011;4809;48.224;8.572;2023-05-10T07:55:09;0.90;;;0.90;;
9541;SDS011;4809;48.224;8.572;2023-05-10T07:57:35;1.40;;;1.10;;
9541;SDS011;4809;48.224;8.572;2023-05-10T08:00:01;1.00;;;1.00;;
9541;SDS011;4809;48.224;8.572;2023-05-10T08:02:27;1.25;;;1.00;;
9541;SDS011;4809;48.224;8.572;2023-05-10T08:04:53;1.20;;;1.10;;
9541;SDS011;4809;48.224;8.572;2023-05-10T08:07:19;1.40;;;1.30;;
9541;SDS011;4809;48.224;8.572;2023-05-10T08:09:44;1.33;;;1.00;;
9541;SDS011;4809;48.224;8.572;2023-05-10T08:12:10;1.23;;;1.23;;
9541;SDS011;4809;48.224;8.572;2023-05-10T08:14:36;1.92;;;1.25;;
9541;SDS011;4809;48.224;8.572;2023-05-10T08:17:02;1.02;;;1.00;;
9541;SDS011;4809;48.224;8.572;2023-05-10T08:19:28;2.15;;;0.85;;
9541;SDS011;4809;48.224;8.572;2023-05-10T08:21:54;2.00;;;0.82;;
9541;SDS011;4809;48.224;8.572;2023-05-10T08:24:20;0.85;;;0.80;;
9541;SDS011;4809;48.224;8.572;2023-05-10T08:26:47;1.75;;;0.82;;
9541;SDS011;4809;48.224;8.572;2023-05-10T08:29:13;0.65;;;0.65;;
9541;SDS011;4809;48.224;8.572;2023-05-10T08:31:39;0.85;;;0.80;;
9541;SDS011;4809;48.224;8.572;2023-05-10T08:34:04;0.52;;;0.52;;
9541;SDS011;4809;48.224;8.572;2023-05-10T08:36:30;2.05;;;0.70;;
9541;SDS011;4809;48.224;8.572;2023-05-10T08:38:57;1.35;;;0.90;;
9541;SDS011;4809;48.224;8.572;2023-05-10T08:41:23;0.70;;;0.70;;
9541;SDS011;4809;48.224;8.572;2023-05-10T08:43:50;0.70;;;0.70;;
9541;SDS011;4809;48.224;8.572;2023-05-10T08:46:20;67.68;;;31.23;;
9541;SDS011;4809;48.224;8.572;2023-05-10T08:48:48;87.05;;;36.80;;
9541;SDS011;4809;48.224;8.572;2023-05-10T08:51:19;151.40;;;67.95;;
9541;SDS011;4809;48.224;8.572;2023-05-10T08:53:47;14.57;;;10.75;;
9541;SDS011;4809;48.224;8.572;2023-05-10T08:56:13;16.05;;;12.63;;
9541;SDS011;4809;48.224;8.572;2023-05-10T08:58:40;5.70;;;4.93;;
9541;SDS011;4809;48.224;8.572;2023-05-10T09:01:06;4.53;;;3.78;;
9541;SDS011;4809;48.224;8.572;2023-05-10T09:03:33;7.43;;;6.15;;
9541;SDS011;4809;48.224;8.572;2023-05-10T09:06:00;8.77;;;6.25;;
9541;SDS011;4809;48.224;8.572;2023-05-10T09:08:26;6.53;;;4.80;;
9541;SDS011;4809;48.224;8.572;2023-05-10T09:10:52;15.02;;;12.48;;
9541;SDS011;4809;48.224;8.572;2023-05-10T09:13:18;5.13;;;3.50;;
9541;SDS011;4809;48.224;8.572;2023-05-10T09:15:45;8.82;;;7.05;;
9541;SDS011;4809;48.224;8.572;2023-05-10T09:18:12;3.22;;;2.92;;
9541;SDS011;4809;48.224;8.572;2023-05-10T09:20:38;3.58;;;3.28;;
9541;SDS011;4809;48.224;8.572;2023-05-10T09:23:03;2.08;;;1.60;;
9541;SDS011;4809;48.224;8.572;2023-05-10T09:25:30;1.98;;;1.88;;
9541;SDS011;4809;48.224;8.572;2023-05-10T09:27:58;2.30;;;2.05;;
9541;SDS011;4809;48.224;8.572;2023-05-10T09:30:27;4.38;;;2.80;;
9541;SDS011;4809;48.224;8.572;2023-05-10T09:32:54;1.80;;;1.65;;
9541;SDS011;4809;48.224;8.572;2023-05-10T09:35:22;2.65;;;2.45;;
9541;SDS011;4809;48.224;8.572;2023-05-10T09:37:49;2.45;;;2.10;;
9541;SDS011;4809;48.224;8.572;2023-05-10T09:40:17;2.20;;;2.00;;
9541;SDS011;4809;48.224;8.572;2023-05-10T09:43:17;2.72;;;2.20;;
9541;SDS011;4809;48.224;8.572;2023-05-10T09:45:36;1.98;;;1.88;;
9541;SDS011;4809;48.224;8.572;2023-05-10T09:48:02;1.80;;;1.70;;
9541;SDS011;4809;48.224;8.572;2023-05-10T09:50:29;2.90;;;2.10;;
9541;SDS011;4809;48.224;8.572;2023-05-10T09:52:59;2.28;;;1.98;;
9541;SDS011;4809;48.224;8.572;2023-05-10T09:55:27;2.20;;;2.00;;
9541;SDS011;4809;48.224;8.572;2023-05-10T09:58:07;3.03;;;2.10;;
9541;SDS011;4809;48.224;8.572;2023-05-10T10:00:37;4.82;;;3.65;;
9541;SDS011;4809;48.224;8.572;2023-05-10T10:03:04;2.40;;;2.20;;
9541;SDS011;4809;48.224;8.572;2023-05-10T10:05:30;1.70;;;1.60;;
9541;SDS011;4809;48.224;8.572;2023-05-10T10:07:57;2.75;;;1.70;;
9541;SDS011;4809;48.224;8.572;2023-05-10T10:10:24;1.40;;;1.30;;
9541;SDS011;4809;48.224;8.572;2023-05-10T10:12:51;2.90;;;1.60;;
9541;SDS011;4809;48.224;8.572;2023-05-10T10:15:17;1.95;;;1.52;;
9541;SDS011;4809;48.224;8.572;2023-05-10T10:17:43;1.70;;;1.60;;
9541;SDS011;4809;48.224;8.572;2023-05-10T10:20:10;2.30;;;2.10;;
9541;SDS011;4809;48.224;8.572;2023-05-10T10:22:36;1.60;;;1.50;;
9541;SDS011;4809;48.224;8.572;2023-05-10T10:25:03;1.48;;;1.30;;
9541;SDS011;4809;48.224;8.572;2023-05-10T10:35:29;1.13;;;1.10;;
9541;SDS011;4809;48.224;8.572;2023-05-10T10:37:56;1.92;;;1.30;;
9541;SDS011;4809;48.224;8.572;2023-05-10T10:40:29;1.45;;;1.35;;
9541;SDS011;4809;48.224;8.572;2023-05-10T10:42:56;5.85;;;3.60;;
9541;SDS011;4809;48.224;8.572;2023-05-10T10:45:26;5.20;;;3.75;;
9541;SDS011;4809;48.224;8.572;2023-05-10T10:50:47;2.53;;;2.28;;
9541;SDS011;4809;48.224;8.572;2023-05-10T10:53:13;5.55;;;3.30;;
9541;SDS011;4809;48.224;8.572;2023-05-10T10:55:48;5.38;;;2.80;;
9541;SDS011;4809;48.224;8.572;2023-05-10T11:01:15;5.35;;;3.53;;
9541;SDS011;4809;48.224;8.572;2023-05-10T11:04:16;5.95;;;4.15;;
9541;SDS011;4809;48.224;8.572;2023-05-10T11:06:42;6.45;;;4.00;;
9541;SDS011;4809;48.224;8.572;2023-05-10T11:09:08;6.13;;;4.28;;
9541;SDS011;4809;48.224;8.572;2023-05-10T11:11:35;8.82;;;5.55;;
9541;SDS011;4809;48.224;8.572;2023-05-10T11:14:13;1.98;;;1.70;;
9541;SDS011;4809;48.224;8.572;2023-05-10T11:16:42;6.10;;;3.67;;
9541;SDS011;4809;48.224;8.572;2023-05-10T11:19:10;20.83;;;16.65;;
9541;SDS011;4809;48.224;8.572;2023-05-10T11:21:50;4.80;;;4.30;;
9541;SDS011;4809;48.224;8.572;2023-05-10T11:24:36;4.03;;;3.15;;
9541;SDS011;4809;48.224;8.572;2023-05-10T11:27:02;1.60;;;1.50;;
9541;SDS011;4809;48.224;8.572;2023-05-10T11:29:28;2.38;;;1.75;;
9541;SDS011;4809;48.224;8.572;2023-05-10T11:31:53;3.58;;;1.85;;
9541;SDS011;4809;48.224;8.572;2023-05-10T11:34:23;3.17;;;2.65;;
9541;SDS011;4809;48.224;8.572;2023-05-10T11:36:52;2.42;;;2.10;;
9541;SDS011;4809;48.224;8.572;2023-05-10T11:39:20;2.13;;;2.03;;
9541;SDS011;4809;48.224;8.572;2023-05-10T11:41:49;2.38;;;1.70;;
9541;SDS011;4809;48.224;8.572;2023-05-10T11:44:15;5.88;;;3.08;;
9541;SDS011;4809;48.224;8.572;2023-05-10T11:46:41;4.95;;;3.03;;
9541;SDS011;4809;48.224;8.572;2023-05-10T11:49:07;4.45;;;3.20;;
9541;SDS011;4809;48.224;8.572;2023-05-10T11:51:34;4.80;;;3.30;;
9541;SDS011;4809;48.224;8.572;2023-05-10T11:54:08;4.15;;;2.35;;
9541;SDS011;4809;48.224;8.572;2023-05-10T11:56:35;2.58;;;1.90;;
9541;SDS011;4809;48.224;8.572;2023-05-10T11:59:01;2.40;;;1.83;;
9541;SDS011;4809;48.224;8.572;2023-05-10T12:01:28;3.08;;;2.08;;
9541;SDS011;4809;48.224;8.572;2023-05-10T12:03:55;2.38;;;1.80;;
9541;SDS011;4809;48.224;8.572;2023-05-10T12:06:25;3.72;;;1.90;;
9541;SDS011;4809;48.224;8.572;2023-05-10T12:09:02;2.25;;;1.42;;
9541;SDS011;4809;48.224;8.572;2023-05-10T12:11:31;3.10;;;1.60;;
9541;SDS011;4809;48.224;8.572;2023-05-10T12:13:57;2.15;;;1.42;;
9541;SDS011;4809;48.224;8.572;2023-05-10T12:16:23;2.92;;;1.77;;
9541;SDS011;4809;48.224;8.572;2023-05-10T12:18:51;1.48;;;1.38;;
9541;SDS011;4809;48.224;8.572;2023-05-10T12:21:18;1.73;;;1.63;;
9541;SDS011;4809;48.224;8.572;2023-05-10T12:23:46;1.65;;;1.50;;
9541;SDS011;4809;48.224;8.572;2023-05-10T12:26:13;1.50;;;1.40;;
9541;SDS011;4809;48.224;8.572;2023-05-10T12:28:39;2.85;;;1.60;;
9541;SDS011;4809;48.224;8.572;2023-05-10T12:31:05;1.50;;;1.40;;
9541;SDS011;4809;48.224;8.572;2023-05-10T12:33:39;2.63;;;2.22;;
9541;SDS011;4809;48.224;8.572;2023-05-10T12:36:12;2.45;;;1.20;;
9541;SDS011;4809;48.224;8.572;2023-05-10T12:38:40;2.53;;;1.90;;
9541;SDS011;4809;48.224;8.572;2023-05-10T12:41:13;2.53;;;1.40;;
9541;SDS011;4809;48.224;8.572;2023-05-10T12:43:40;2.30;;;1.85;;
9541;SDS011;4809;48.224;8.572;2023-05-10T12:48:32;1.70;;;1.30;;
9541;SDS011;4809;48.224;8.572;2023-05-10T12:50:59;2.13;;;1.30;;
9541;SDS011;4809;48.224;8.572;2023-05-10T12:53:25;1.58;;;1.25;;
9541;SDS011;4809;48.224;8.572;2023-05-10T12:55:51;1.92;;;1.30;;
9541;SDS011;4809;48.224;8.572;2023-05-10T12:58:16;3.22;;;1.60;;
9541;SDS011;4809;48.224;8.572;2023-05-10T13:00:42;1.77;;;1.10;;
9541;SDS011;4809;48.224;8.572;2023-05-10T13:03:08;3.13;;;1.30;;
9541;SDS011;4809;48.224;8.572;2023-05-10T13:05:35;2.95;;;1.70;;
9541;SDS011;4809;48.224;8.572;2023-05-10T13:08:01;3.00;;;1.60;;
9541;SDS011;4809;48.224;8.572;2023-05-10T13:10:29;2.33;;;1.27;;
9541;SDS011;4809;48.224;8.572;2023-05-10T13:12:55;1.50;;;1.40;;
9541;SDS011;4809;48.224;8.572;2023-05-10T13:15:22;3.22;;;1.70;;
9541;SDS011;4809;48.224;8.572;2023-05-10T13:17:47;2.17;;;1.70;;
9541;SDS011;4809;48.224;8.572;2023-05-10T13:20:13;1.92;;;1.70;;
9541;SDS011;4809;48.224;8.572;2023-05-10T13:22:39;2.20;;;1.40;;
9541;SDS011;4809;48.224;8.572;2023-05-10T13:25:05;1.90;;;1.60;;
9541;SDS011;4809;48.224;8.572;2023-05-10T13:27:31;4.00;;;1.45;;
9541;SDS011;4809;48.224;8.572;2023-05-10T13:29:57;2.28;;;1.48;;
9541;SDS011;4809;48.224;8.572;2023-05-10T13:32:24;2.10;;;1.90;;
9541;SDS011;4809;48.224;8.572;2023-05-10T13:34:50;2.50;;;1.70;;
9541;SDS011;4809;48.224;8.572;2023-05-10T13:37:16;2.40;;;1.73;;
9541;SDS011;4809;48.224;8.572;2023-05-10T13:39:42;2.00;;;1.65;;
9541;SDS011;4809;48.224;8.572;2023-05-10T13:42:08;2.20;;;1.40;;
9541;SDS011;4809;48.224;8.572;2023-05-10T13:44:33;2.25;;;1.35;;
9541;SDS011;4809;48.224;8.572;2023-05-10T13:46:59;1.40;;;1.30;;
9541;SDS011;4809;48.224;8.572;2023-05-10T13:49:25;2.53;;;1.52;;
9541;SDS011;4809;48.224;8.572;2023-05-10T13:51:50;1.55;;;1.30;;
9541;SDS011;4809;48.224;8.572;2023-05-10T13:54:17;3.67;;;1.40;;
9541;SDS011;4809;48.224;8.572;2023-05-10T13:56:44;1.52;;;1.42;;
9541;SDS011;4809;48.224;8.572;2023-05-10T13:59:12;2.08;;;1.30;;
9541;SDS011;4809;48.224;8.572;2023-05-10T14:01:39;2.97;;;1.30;;
9541;SDS011;4809;48.224;8.572;2023-05-10T14:04:05;2.33;;;1.55;;
9541;SDS011;4809;48.224;8.572;2023-05-10T14:06:35;1.75;;;1.50;;
9541;SDS011;4809;48.224;8.572;2023-05-10T14:09:01;1.60;;;1.50;;
9541;SDS011;4809;48.224;8.572;2023-05-10T14:11:27;1.63;;;1.50;;
9541;SDS011;4809;48.224;8.572;2023-05-10T14:13:53;1.50;;;1.40;;
9541;SDS011;4809;48.224;8.572;2023-05-10T14:16:19;1.60;;;1.50;;
9541;SDS011;4809;48.224;8.572;2023-05-10T14:18:45;1.67;;;1.35;;
9541;SDS011;4809;48.224;8.572;2023-05-10T14:21:14;1.98;;;1.40;;
9541;SDS011;4809;48.224;8.572;2023-05-10T14:23:40;1.67;;;1.17;;
9541;SDS011;4809;48.224;8.572;2023-05-10T14:26:06;1.42;;;1.33;;
9541;SDS011;4809;48.224;8.572;2023-05-10T14:28:31;1.20;;;1.10;;
9541;SDS011;4809;48.224;8.572;2023-05-10T14:30:57;1.60;;;1.17;;
9541;SDS011;4809;48.224;8.572;2023-05-10T14:33:23;1.00;;;1.00;;
9541;SDS011;4809;48.224;8.572;2023-05-10T14:35:50;1.15;;;1.10;;
9541;SDS011;4809;48.224;8.572;2023-05-10T14:38:16;1.35;;;1.23;;
9541;SDS011;4809;48.224;8.572;2023-05-10T14:40:42;1.95;;;1.25;;
9541;SDS011;4809;48.224;8.572;2023-05-10T14:43:08;2.47;;;1.40;;
9541;SDS011;4809;48.224;8.572;2023-05-10T14:45:34;1.50;;;1.23;;
9541;SDS011;4809;48.224;8.572;2023-05-10T14:48:00;1.42;;;1.20;;
9541;SDS011;4809;48.224;8.572;2023-05-10T14:50:29;1.67;;;1.25;;
9541;SDS011;4809;48.224;8.572;2023-05-10T14:52:55;3.10;;;1.48;;
9541;SDS011;4809;48.224;8.572;2023-05-10T14:55:21;1.80;;;1.42;;
9541;SDS011;4809;48.224;8.572;2023-05-10T14:57:46;2.70;;;1.30;;
9541;SDS011;4809;48.224;8.572;2023-05-10T15:00:14;1.73;;;1.25;;
9541;SDS011;4809;48.224;8.572;2023-05-10T15:02:40;1.42;;;1.33;;
9541;SDS011;4809;48.224;8.572;2023-05-10T15:05:06;1.23;;;1.13;;
9541;SDS011;4809;48.224;8.572;2023-05-10T15:07:32;1.60;;;1.10;;
9541;SDS011;4809;48.224;8.572;2023-05-10T15:09:58;1.55;;;1.25;;
9541;SDS011;4809;48.224;8.572;2023-05-10T15:12:24;1.85;;;1.30;;
9541;SDS011;4809;48.224;8.572;2023-05-10T15:14:49;1.83;;;1.10;;
9541;SDS011;4809;48.224;8.572;2023-05-10T15:17:15;1.77;;;1.67;;
9541;SDS011;4809;48.224;8.572;2023-05-10T15:19:41;2.28;;;1.30;;
9541;SDS011;4809;48.224;8.572;2023-05-10T15:22:07;1.40;;;1.30;;
9541;SDS011;4809;48.224;8.572;2023-05-10T15:24:32;1.17;;;1.08;;
9541;SDS011;4809;48.224;8.572;2023-05-10T15:26:59;1.40;;;1.30;;
9541;SDS011;4809;48.224;8.572;2023-05-10T15:29:25;1.35;;;1.10;;
9541;SDS011;4809;48.224;8.572;2023-05-10T15:31:50;1.60;;;1.10;;
9541;SDS011;4809;48.224;8.572;2023-05-10T15:34:16;1.25;;;1.15;;
9541;SDS011;4809;48.224;8.572;2023-05-10T15:36:42;1.30;;;0.90;;
9541;SDS011;4809;48.224;8.572;2023-05-10T15:39:09;1.55;;;0.98;;
9541;SDS011;4809;48.224;8.572;2023-05-10T15:41:35;1.58;;;1.23;;
9541;SDS011;4809;48.224;8.572;2023-05-10T15:44:01;1.02;;;0.80;;
9541;SDS011;4809;48.224;8.572;2023-05-10T15:46:27;4.35;;;3.25;;
9541;SDS011;4809;48.224;8.572;2023-05-10T15:48:54;2.17;;;1.27;;
9541;SDS011;4809;48.224;8.572;2023-05-10T15:51:19;1.52;;;1.30;;